Terminal Aerodrome Forecast
Issued by NWS

Home | Current Version | Previous Version | Text Only | Print | Product List | Glossary On
Versions: 1 2 3 4 5 6 7 8 9 10 11 12 13 14 15 16 17
000
FTUS43 KMQT 092344 CCA
TAFIWD
TAF COR
KIWD 092344Z 1000/1024 26012KT P6SM -SHSN OVC030
     FM100300 26009KT 6SM -SHSN BKN025
     FM100700 26008KT 3SM -SHSN BKN020
     FM101000 27008KT 1 1/2SM -SHSN BKN020
     FM101400 27007KT P6SM BKN020
     FM102100 25005KT P6SM BKN025
     FM102200 24005KT P6SM BKN030=

USA.gov is the U.S. government's official web portal to all federal, state and local government web resources and services.